createdAt,value
2023-02-19T00:01:43.793Z,9.67
2023-02-19T00:04:18.968Z,9.65
2023-02-19T00:06:46.953Z,9.64
2023-02-19T00:09:16.008Z,9.65
2023-02-19T00:11:43.005Z,9.64
2023-02-19T00:14:14.708Z,9.63
2023-02-19T00:16:41.502Z,9.62
2023-02-19T00:19:17.975Z,9.60
2023-02-19T00:21:44.809Z,9.61
2023-02-19T00:24:12.806Z,9.61
2023-02-19T00:26:40.874Z,9.60
2023-02-19T00:29:12.283Z,9.60
2023-02-19T00:31:40.445Z,9.59
2023-02-19T00:34:07.907Z,9.60
2023-02-19T00:36:37.023Z,9.59
2023-02-19T00:39:04.990Z,9.60
2023-02-19T00:41:32.260Z,9.58
2023-02-19T00:44:04.528Z,9.57
2023-02-19T00:46:38.219Z,9.57
2023-02-19T00:49:07.028Z,9.57
2023-02-19T00:51:38.416Z,9.55
2023-02-19T00:54:06.461Z,9.54
2023-02-19T00:56:33.400Z,9.54
2023-02-19T00:59:00.411Z,9.54
2023-02-19T01:01:27.061Z,9.54
2023-02-19T01:03:54.286Z,9.53
2023-02-19T01:06:21.734Z,9.53
2023-02-19T01:08:49.210Z,9.53
2023-02-19T01:11:17.026Z,9.53
2023-02-19T01:13:44.413Z,9.52
2023-02-19T01:16:22.426Z,9.53
2023-02-19T01:18:49.196Z,9.52
2023-02-19T01:21:21.634Z,9.54
2023-02-19T01:23:50.559Z,9.53
2023-02-19T01:26:21.351Z,9.52
2023-02-19T01:28:48.585Z,9.52
2023-02-19T01:31:20.524Z,9.51
2023-02-19T01:33:49.324Z,9.50
2023-02-19T01:36:16.482Z,9.49
2023-02-19T01:38:43.953Z,9.48
2023-02-19T01:41:13.650Z,9.46
2023-02-19T01:44:08.184Z,9.45
2023-02-19T01:46:36.920Z,9.44
2023-02-19T01:49:10.066Z,9.40
2023-02-19T01:51:39.678Z,9.38
2023-02-19T01:54:09.735Z,9.36
2023-02-19T01:56:40.797Z,9.34
2023-02-19T01:59:07.639Z,9.34
2023-02-19T02:01:34.709Z,9.34
2023-02-19T02:04:01.767Z,9.34
2023-02-19T02:06:33.125Z,9.32
2023-02-19T02:09:20.369Z,9.30
2023-02-19T02:11:52.166Z,9.29
2023-02-19T02:14:24.259Z,9.30
2023-02-19T02:17:38.934Z,9.28
2023-02-19T02:20:24.397Z,9.26
2023-02-19T02:22:59.747Z,9.26
2023-02-19T02:25:54.156Z,9.25
2023-02-19T02:28:52.228Z,9.24
2023-02-19T02:31:33.053Z,9.24
2023-02-19T02:34:14.501Z,9.23
2023-02-19T02:36:45.010Z,9.22
2023-02-19T02:39:15.709Z,9.20
2023-02-19T02:41:45.071Z,9.21
2023-02-19T02:44:12.587Z,9.18
2023-02-19T02:46:44.987Z,9.20
2023-02-19T02:49:23.645Z,9.19
2023-02-19T02:51:54.587Z,9.18
2023-02-19T02:54:51.100Z,9.17
2023-02-19T02:57:19.465Z,9.17
2023-02-19T02:59:49.111Z,9.16
2023-02-19T03:02:23.780Z,9.16
2023-02-19T03:05:31.159Z,9.16
2023-02-19T03:08:20.879Z,9.14
2023-02-19T03:10:52.581Z,9.14
2023-02-19T03:13:49.216Z,9.15
2023-02-19T03:16:41.682Z,9.16
2023-02-19T03:19:19.816Z,9.15
2023-02-19T03:21:52.781Z,9.15
2023-02-19T03:24:42.683Z,9.14
2023-02-19T03:27:11.734Z,9.14
2023-02-19T03:29:41.735Z,9.15
2023-02-19T03:32:20.796Z,9.15
2023-02-19T03:34:55.537Z,9.14
2023-02-19T03:37:30.080Z,9.11
2023-02-19T03:39:57.573Z,9.11
2023-02-19T03:42:47.581Z,9.10
2023-02-19T03:45:25.773Z,9.10
2023-02-19T03:48:03.212Z,9.10
2023-02-19T03:50:46.128Z,9.10
2023-02-19T03:53:24.863Z,9.10
2023-02-19T03:56:06.857Z,9.09
2023-02-19T03:59:02.309Z,9.07
2023-02-19T04:01:36.947Z,9.07
2023-02-19T04:04:16.878Z,9.05
2023-02-19T04:06:46.832Z,9.04
2023-02-19T04:09:14.979Z,9.05
2023-02-19T04:11:42.049Z,9.04
2023-02-19T04:14:15.175Z,9.03
2023-02-19T04:16:47.816Z,9.02
2023-02-19T04:19:20.831Z,9.01
2023-02-19T04:21:50.163Z,8.98
2023-02-19T04:24:26.636Z,8.97
2023-02-19T04:26:54.666Z,8.95
2023-02-19T04:29:21.479Z,8.91
2023-02-19T04:31:48.524Z,8.90
2023-02-19T04:34:15.239Z,8.89
2023-02-19T04:36:41.843Z,8.88
2023-02-19T04:39:08.725Z,8.88
2023-02-19T04:41:35.579Z,8.88
2023-02-19T04:44:02.320Z,8.89
2023-02-19T04:46:28.954Z,8.88
2023-02-19T04:48:56.039Z,8.90
2023-02-19T04:51:22.640Z,8.89
2023-02-19T04:53:49.650Z,8.90
2023-02-19T04:56:17.467Z,8.90
2023-02-19T04:58:45.203Z,8.89
2023-02-19T05:01:12.971Z,8.90
2023-02-19T05:03:40.345Z,8.91
2023-02-19T05:06:11.913Z,8.90
2023-02-19T05:08:39.247Z,8.90
2023-02-19T05:11:07.723Z,8.90
2023-02-19T05:13:34.796Z,8.91
2023-02-19T05:16:05.642Z,8.90
2023-02-19T05:18:32.951Z,8.91
2023-02-19T05:21:00.778Z,8.91
2023-02-19T05:23:28.224Z,8.91
2023-02-19T05:25:54.982Z,8.90
2023-02-19T05:28:28.545Z,8.88
2023-02-19T05:30:57.057Z,8.87
2023-02-19T05:33:25.919Z,8.86
2023-02-19T05:35:55.419Z,8.86
2023-02-19T05:38:23.132Z,8.86
2023-02-19T05:40:49.953Z,8.85
2023-02-19T05:43:17.190Z,8.83
2023-02-19T05:45:44.008Z,8.81
2023-02-19T05:48:12.716Z,8.80
2023-02-19T05:50:40.004Z,8.79
2023-02-19T05:53:06.666Z,8.79
2023-02-19T05:55:36.369Z,8.78
2023-02-19T05:58:03.770Z,8.77
2023-02-19T06:00:32.152Z,8.78
2023-02-19T06:02:58.935Z,8.78
2023-02-19T06:05:25.743Z,8.78
2023-02-19T06:07:52.340Z,8.77
2023-02-19T06:10:19.100Z,8.77
2023-02-19T06:12:45.712Z,8.79
2023-02-19T06:15:12.243Z,8.77
2023-02-19T06:17:39.052Z,8.76
2023-02-19T06:20:06.026Z,8.75
2023-02-19T06:22:32.784Z,8.74
2023-02-19T06:24:59.269Z,8.73
2023-02-19T06:27:25.851Z,8.73
2023-02-19T06:29:52.362Z,8.70
2023-02-19T06:32:19.159Z,8.70
2023-02-19T06:34:45.792Z,8.68
2023-02-19T06:37:12.367Z,8.66
2023-02-19T06:39:38.915Z,8.65
2023-02-19T06:42:05.794Z,8.64
2023-02-19T06:44:32.370Z,8.63
2023-02-19T06:46:59.146Z,8.62
2023-02-19T06:49:26.538Z,8.63
2023-02-19T06:51:53.061Z,8.62
2023-02-19T06:54:19.740Z,8.60
2023-02-19T06:56:47.198Z,8.60
2023-02-19T06:59:18.562Z,8.59
2023-02-19T07:01:45.781Z,8.58
2023-02-19T07:04:12.424Z,8.57
2023-02-19T07:06:39.192Z,8.57
2023-02-19T07:09:07.082Z,8.56
2023-02-19T07:11:35.367Z,8.55
2023-02-19T07:14:04.307Z,8.57
2023-02-19T07:16:31.417Z,8.56
2023-02-19T07:18:59.712Z,8.56
2023-02-19T07:21:27.484Z,8.57
2023-02-19T07:23:54.324Z,8.57
2023-02-19T07:26:21.836Z,8.56
2023-02-19T07:28:50.471Z,8.57
2023-02-19T07:31:19.310Z,8.57
2023-02-19T07:33:47.410Z,8.57
2023-02-19T07:36:15.507Z,8.59
2023-02-19T07:38:42.016Z,8.66
2023-02-19T07:41:09.098Z,8.72
2023-02-19T07:43:38.042Z,8.79
2023-02-19T07:46:08.188Z,8.85
2023-02-19T07:48:39.084Z,8.96
2023-02-19T07:51:08.794Z,9.04
2023-02-19T07:53:35.661Z,9.14
2023-02-19T07:56:04.861Z,9.19
2023-02-19T07:58:32.279Z,9.25
2023-02-19T08:01:07.227Z,9.30
2023-02-19T08:03:33.897Z,9.35
2023-02-19T08:06:00.534Z,9.44
2023-02-19T08:08:27.034Z,9.48
2023-02-19T08:11:12.431Z,9.50
2023-02-19T08:13:39.157Z,9.58
2023-02-19T08:16:20.123Z,9.62
2023-02-19T08:18:51.073Z,9.65
2023-02-19T08:21:21.136Z,9.68
2023-02-19T08:23:49.973Z,9.70
2023-02-19T08:26:17.611Z,9.76
2023-02-19T08:28:44.305Z,9.75
2023-02-19T08:31:12.808Z,9.77
2023-02-19T08:33:39.651Z,9.77
2023-02-19T08:36:08.525Z,9.78
2023-02-19T08:38:36.668Z,9.76
2023-02-19T08:41:09.212Z,9.74
2023-02-19T08:43:36.601Z,9.66
2023-02-19T08:46:04.141Z,9.75
2023-02-19T08:48:30.794Z,9.78
2023-02-19T08:51:01.199Z,9.85
2023-02-19T08:53:27.972Z,9.85
2023-02-19T08:55:54.961Z,9.86
2023-02-19T08:58:22.055Z,9.90
2023-02-19T09:00:49.042Z,9.93
2023-02-19T09:03:15.660Z,9.97
2023-02-19T09:05:42.418Z,9.91
2023-02-19T09:08:09.623Z,9.97
2023-02-19T09:10:36.339Z,10.05
2023-02-19T09:13:03.146Z,10.07
2023-02-19T09:15:31.992Z,10.11
2023-02-19T09:17:58.597Z,10.11
2023-02-19T09:20:25.362Z,10.15
2023-02-19T09:22:57.550Z,10.19
2023-02-19T09:25:24.385Z,10.23
2023-02-19T09:27:54.719Z,10.24
2023-02-19T09:30:21.383Z,10.27
2023-02-19T09:32:47.940Z,10.32
2023-02-19T09:35:14.525Z,10.38
2023-02-19T09:37:41.041Z,10.39
2023-02-19T09:40:08.127Z,10.41
2023-02-19T09:42:34.860Z,10.38
2023-02-19T09:45:01.915Z,10.38
2023-02-19T09:47:31.499Z,10.35
2023-02-19T09:50:05.490Z,10.42
2023-02-19T09:52:52.901Z,10.41
2023-02-19T09:55:28.235Z,10.42
2023-02-19T09:57:56.758Z,10.42
2023-02-19T10:00:31.317Z,10.43
2023-02-19T10:03:05.428Z,10.35
2023-02-19T10:05:34.140Z,10.37
2023-02-19T10:08:04.495Z,10.35
2023-02-19T10:10:34.225Z,10.32
2023-02-19T10:13:17.987Z,10.25
2023-02-19T10:15:48.711Z,10.03
2023-02-19T10:18:21.781Z,9.99
2023-02-19T10:20:50.793Z,9.77
2023-02-19T10:23:18.182Z,9.77
2023-02-19T10:25:57.257Z,9.70
2023-02-19T10:28:28.168Z,9.69
2023-02-19T10:30:57.766Z,9.60
2023-02-19T10:33:25.540Z,9.60
2023-02-19T10:36:00.357Z,9.59
2023-02-19T10:38:34.682Z,9.57
2023-02-19T10:41:07.267Z,9.59
2023-02-19T10:43:40.805Z,9.64
2023-02-19T10:46:16.854Z,9.72
2023-02-19T10:48:51.884Z,9.67
2023-02-19T10:51:21.928Z,9.73
2023-02-19T10:53:50.826Z,9.76
2023-02-19T10:56:25.591Z,9.76
2023-02-19T10:58:52.873Z,9.82
2023-02-19T11:01:29.271Z,9.84
2023-02-19T11:04:16.287Z,9.91
2023-02-19T11:06:43.643Z,9.96
2023-02-19T11:09:36.778Z,10.00
2023-02-19T11:12:06.136Z,10.01
2023-02-19T11:14:34.670Z,10.03
2023-02-19T11:17:06.623Z,9.97
2023-02-19T11:19:38.645Z,9.89
2023-02-19T11:22:33.276Z,9.86
2023-02-19T11:25:06.304Z,9.85
2023-02-19T11:27:33.965Z,9.77
2023-02-19T11:30:35.250Z,9.81
2023-02-19T11:33:27.276Z,9.76
2023-02-19T11:36:15.737Z,9.84
2023-02-19T11:38:42.920Z,9.82
2023-02-19T11:41:28.729Z,9.79
2023-02-19T11:44:30.294Z,9.69
2023-02-19T11:47:10.867Z,9.84
2023-02-19T11:50:08.868Z,9.92
2023-02-19T11:53:08.990Z,9.97
2023-02-19T11:55:50.116Z,9.88
2023-02-19T11:58:46.993Z,9.86
2023-02-19T12:01:30.346Z,9.83
2023-02-19T12:04:08.026Z,9.80
2023-02-19T12:07:06.148Z,9.80
2023-02-19T12:09:58.630Z,9.65
2023-02-19T12:12:49.216Z,9.64
2023-02-19T12:15:41.196Z,9.61
2023-02-19T12:18:27.921Z,9.47
2023-02-19T12:21:20.521Z,9.47
2023-02-19T12:24:25.455Z,9.38
2023-02-19T12:27:20.550Z,9.30
2023-02-19T12:30:24.630Z,9.09
2023-02-19T12:33:22.351Z,9.08
2023-02-19T12:36:27.606Z,8.99
2023-02-19T12:39:28.853Z,8.99
2023-02-19T12:42:02.581Z,8.93
2023-02-19T12:44:44.052Z,8.98
2023-02-19T12:47:21.618Z,8.85
2023-02-19T12:50:05.714Z,8.91
2023-02-19T12:52:40.535Z,8.90
2023-02-19T12:55:29.539Z,8.85
2023-02-19T12:57:59.237Z,8.85
2023-02-19T13:00:34.583Z,8.83
2023-02-19T13:03:21.093Z,8.84
2023-02-19T13:06:12.042Z,8.81
2023-02-19T13:09:06.383Z,8.83
2023-02-19T13:11:42.903Z,8.83
2023-02-19T13:14:30.930Z,8.90
2023-02-19T13:17:09.427Z,9.02
2023-02-19T13:19:37.780Z,9.09
2023-02-19T13:22:59.121Z,9.06
2023-02-19T13:25:44.213Z,8.98
2023-02-19T13:28:28.077Z,8.85
2023-02-19T13:31:10.812Z,8.78
2023-02-19T13:33:48.517Z,8.75
2023-02-19T13:36:23.316Z,8.75
2023-02-19T13:38:50.548Z,8.74
2023-02-19T13:41:20.815Z,8.75
2023-02-19T13:43:56.046Z,8.78
2023-02-19T13:46:23.040Z,8.73
2023-02-19T13:49:31.592Z,8.80
2023-02-19T13:52:00.486Z,8.84
2023-02-19T13:54:40.111Z,8.84
2023-02-19T13:57:28.554Z,8.94
2023-02-19T13:59:58.246Z,8.89
2023-02-19T14:02:32.182Z,8.93
2023-02-19T14:05:07.908Z,8.94
2023-02-19T14:07:38.063Z,8.85
2023-02-19T14:10:12.276Z,8.94
2023-02-19T14:12:38.809Z,9.07
2023-02-19T14:15:44.118Z,8.96
2023-02-19T14:18:47.551Z,8.99
2023-02-19T14:21:26.034Z,9.12
2023-02-19T14:23:55.979Z,9.17
2023-02-19T14:26:23.933Z,9.25
2023-02-19T14:28:53.060Z,9.21
2023-02-19T14:31:36.472Z,9.21
2023-02-19T14:34:18.721Z,9.21
2023-02-19T14:36:49.104Z,9.32
2023-02-19T14:39:19.809Z,9.30
2023-02-19T14:41:51.473Z,9.28
2023-02-19T14:44:25.808Z,9.39
2023-02-19T14:47:05.241Z,9.39
2023-02-19T14:49:45.891Z,9.44
2023-02-19T14:52:25.056Z,9.55
2023-02-19T14:54:56.928Z,9.56
2023-02-19T14:57:28.701Z,9.50
2023-02-19T15:00:00.736Z,9.45
2023-02-19T15:02:29.515Z,9.51
2023-02-19T15:04:56.756Z,9.58
2023-02-19T15:07:30.235Z,9.64
2023-02-19T15:10:04.898Z,9.63
2023-02-19T15:12:51.912Z,9.57
2023-02-19T15:15:29.797Z,9.60
2023-02-19T15:17:57.769Z,9.65
2023-02-19T15:20:26.716Z,9.70
2023-02-19T15:22:54.645Z,9.70
2023-02-19T15:25:24.709Z,9.60
2023-02-19T15:27:51.484Z,9.57
2023-02-19T15:30:24.536Z,9.62
2023-02-19T15:32:55.792Z,9.63
2023-02-19T15:35:24.090Z,9.56
2023-02-19T15:37:52.152Z,9.56
2023-02-19T15:40:20.589Z,9.52
2023-02-19T15:42:47.967Z,9.46
2023-02-19T15:45:16.936Z,9.47
2023-02-19T15:47:49.235Z,9.43
2023-02-19T15:50:19.481Z,9.49
2023-02-19T15:52:55.235Z,9.32
2023-02-19T15:55:34.182Z,9.21
2023-02-19T15:58:19.418Z,9.17
2023-02-19T16:00:52.118Z,9.20
2023-02-19T16:03:23.047Z,9.22
2023-02-19T16:06:16.328Z,9.17
2023-02-19T16:08:45.921Z,9.11
2023-02-19T16:11:24.533Z,9.14
2023-02-19T16:13:52.019Z,9.16
2023-02-19T16:16:24.448Z,9.09
2023-02-19T16:18:53.216Z,9.04
2023-02-19T16:21:27.052Z,9.04
2023-02-19T16:24:03.061Z,9.06
2023-02-19T16:26:32.119Z,9.06
2023-02-19T16:28:58.710Z,9.05
2023-02-19T16:31:25.613Z,9.00
2023-02-19T16:33:52.522Z,9.02
2023-02-19T16:36:19.216Z,9.02
2023-02-19T16:39:14.324Z,9.04
2023-02-19T16:41:46.669Z,9.02
2023-02-19T16:44:31.375Z,9.06
2023-02-19T16:47:04.847Z,9.06
2023-02-19T16:49:32.022Z,9.00
2023-02-19T16:52:04.503Z,9.00
2023-02-19T16:54:31.588Z,8.99
2023-02-19T16:56:58.161Z,8.95
2023-02-19T16:59:24.967Z,8.93
2023-02-19T17:01:51.634Z,8.88
2023-02-19T17:04:18.438Z,8.91
2023-02-19T17:06:45.656Z,8.94
2023-02-19T17:09:12.230Z,8.94
2023-02-19T17:11:38.954Z,8.98
2023-02-19T17:14:05.544Z,8.90
2023-02-19T17:16:40.254Z,8.87
2023-02-19T17:19:14.123Z,8.86
2023-02-19T17:21:40.937Z,8.88
2023-02-19T17:24:08.009Z,8.88
2023-02-19T17:26:34.703Z,8.87
2023-02-19T17:29:04.320Z,8.89
2023-02-19T17:31:31.126Z,8.89
2023-02-19T17:33:59.242Z,8.87
2023-02-19T17:36:30.495Z,8.84
2023-02-19T17:38:58.946Z,8.83
2023-02-19T17:41:26.009Z,8.78
2023-02-19T17:43:52.788Z,8.80
2023-02-19T17:46:22.918Z,8.80
2023-02-19T17:48:50.373Z,8.79
2023-02-19T17:51:17.007Z,8.78
2023-02-19T17:53:44.061Z,8.77
2023-02-19T17:56:16.863Z,8.73
2023-02-19T17:58:43.589Z,8.70
2023-02-19T18:01:10.725Z,8.69
2023-02-19T18:03:37.546Z,8.72
2023-02-19T18:06:05.110Z,8.72
2023-02-19T18:08:31.806Z,8.71
2023-02-19T18:10:58.538Z,8.69
2023-02-19T18:13:25.278Z,8.73
2023-02-19T18:15:53.570Z,8.76
2023-02-19T18:18:21.100Z,8.78
2023-02-19T18:20:48.004Z,8.77
2023-02-19T18:23:14.979Z,8.79
2023-02-19T18:25:41.782Z,8.81
2023-02-19T18:28:08.559Z,8.80
2023-02-19T18:30:35.304Z,8.78
2023-02-19T18:33:02.169Z,8.75
2023-02-19T18:35:28.968Z,8.74
2023-02-19T18:37:55.996Z,8.74
2023-02-19T18:40:25.943Z,8.71
2023-02-19T18:42:52.864Z,8.66
2023-02-19T18:45:19.672Z,8.62
2023-02-19T18:47:50.079Z,8.60
2023-02-19T18:50:18.950Z,8.56
2023-02-19T18:52:45.818Z,8.56
2023-02-19T18:55:12.508Z,8.50
2023-02-19T18:57:39.088Z,8.48
2023-02-19T19:00:07.395Z,8.42
2023-02-19T19:02:48.357Z,8.40
2023-02-19T19:05:23.309Z,8.37
2023-02-19T19:07:54.478Z,8.30
2023-02-19T19:10:22.070Z,8.25
2023-02-19T19:12:49.051Z,8.20
2023-02-19T19:15:18.449Z,8.17
2023-02-19T19:17:45.552Z,8.13
2023-02-19T19:20:12.692Z,8.09
2023-02-19T19:22:39.535Z,8.05
2023-02-19T19:25:06.581Z,8.01
2023-02-19T19:27:33.187Z,7.97
2023-02-19T19:29:59.757Z,7.93
2023-02-19T19:32:26.278Z,7.89
2023-02-19T19:34:52.920Z,7.88
2023-02-19T19:37:19.731Z,7.88
2023-02-19T19:39:46.216Z,7.87
2023-02-19T19:42:12.796Z,7.88
2023-02-19T19:44:39.418Z,7.85
2023-02-19T19:47:05.965Z,7.83
2023-02-19T19:49:33.577Z,7.82
2023-02-19T19:52:01.215Z,7.78
2023-02-19T19:54:28.524Z,7.73
2023-02-19T19:56:55.151Z,7.72
2023-02-19T19:59:22.497Z,7.70
2023-02-19T20:01:51.728Z,7.69
2023-02-19T20:04:20.217Z,7.72
2023-02-19T20:06:47.324Z,7.75
2023-02-19T20:09:14.557Z,7.77
2023-02-19T20:11:48.968Z,7.75
2023-02-19T20:14:17.172Z,7.77
2023-02-19T20:16:44.955Z,7.78
2023-02-19T20:19:12.204Z,7.76
2023-02-19T20:21:39.042Z,7.76
2023-02-19T20:24:05.856Z,7.76
2023-02-19T20:26:32.732Z,7.76
2023-02-19T20:28:59.364Z,7.74
2023-02-19T20:31:26.498Z,7.72
2023-02-19T20:33:53.295Z,7.68
2023-02-19T20:36:20.774Z,7.64
2023-02-19T20:38:49.827Z,7.61
2023-02-19T20:41:16.437Z,7.59
2023-02-19T20:43:43.161Z,7.59
2023-02-19T20:46:10.158Z,7.59
2023-02-19T20:48:37.016Z,7.58
2023-02-19T20:51:04.236Z,7.55
2023-02-19T20:53:31.998Z,7.54
2023-02-19T20:55:59.110Z,7.55
2023-02-19T20:58:26.096Z,7.55
2023-02-19T21:00:55.839Z,7.55
2023-02-19T21:03:22.710Z,7.52
2023-02-19T21:05:49.274Z,7.42
2023-02-19T21:08:17.381Z,7.33
2023-02-19T21:10:45.498Z,7.23
2023-02-19T21:13:13.027Z,7.15
2023-02-19T21:15:39.548Z,7.03
2023-02-19T21:18:06.182Z,6.96
2023-02-19T21:20:32.898Z,6.89
2023-02-19T21:22:59.668Z,6.82
2023-02-19T21:25:26.726Z,6.73
2023-02-19T21:27:53.553Z,6.64
2023-02-19T21:30:20.095Z,6.57
2023-02-19T21:32:46.677Z,6.49
2023-02-19T21:35:13.439Z,6.44
2023-02-19T21:37:42.429Z,6.40
2023-02-19T21:40:09.734Z,6.35
2023-02-19T21:42:36.463Z,6.29
2023-02-19T21:45:03.813Z,6.25
2023-02-19T21:47:30.370Z,6.20
2023-02-19T21:49:56.942Z,6.14
2023-02-19T21:52:23.468Z,6.08
2023-02-19T21:54:50.098Z,6.04
2023-02-19T21:57:16.584Z,6.01
2023-02-19T21:59:43.277Z,6.00
2023-02-19T22:02:10.376Z,5.94
2023-02-19T22:04:37.129Z,5.93
2023-02-19T22:07:03.583Z,5.92
2023-02-19T22:09:31.708Z,5.88
2023-02-19T22:11:58.444Z,5.86
2023-02-19T22:14:25.142Z,5.83
2023-02-19T22:16:51.930Z,5.79
2023-02-19T22:19:18.551Z,5.80
2023-02-19T22:21:45.293Z,5.77
2023-02-19T22:24:17.740Z,5.73
2023-02-19T22:26:44.942Z,5.72
2023-02-19T22:29:13.395Z,5.71
2023-02-19T22:31:40.177Z,5.68
2023-02-19T22:34:07.368Z,5.66
2023-02-19T22:36:36.999Z,5.68
2023-02-19T22:39:05.813Z,5.66
2023-02-19T22:41:32.652Z,5.65
2023-02-19T22:44:00.156Z,5.65
2023-02-19T22:46:29.532Z,5.63
2023-02-19T22:48:56.526Z,5.61
2023-02-19T22:51:24.508Z,5.64
2023-02-19T22:53:53.957Z,5.59
2023-02-19T22:56:22.632Z,5.56
2023-02-19T22:58:49.462Z,5.54
2023-02-19T23:01:16.773Z,5.53
2023-02-19T23:03:55.454Z,5.53
2023-02-19T23:06:25.245Z,5.53
2023-02-19T23:08:53.299Z,5.52
2023-02-19T23:11:23.118Z,5.53
2023-02-19T23:13:49.777Z,5.54
2023-02-19T23:16:16.682Z,5.54
2023-02-19T23:18:43.435Z,5.53
2023-02-19T23:21:10.656Z,5.57
2023-02-19T23:23:37.628Z,5.58
2023-02-19T23:26:04.722Z,5.56
2023-02-19T23:28:31.636Z,5.57
2023-02-19T23:30:58.270Z,5.59
2023-02-19T23:33:24.898Z,5.59
2023-02-19T23:35:51.443Z,5.61
2023-02-19T23:38:18.054Z,5.62
2023-02-19T23:40:45.403Z,5.63
2023-02-19T23:43:12.007Z,5.63
2023-02-19T23:45:38.701Z,5.62
2023-02-19T23:48:05.508Z,5.65
2023-02-19T23:50:32.147Z,5.65
2023-02-19T23:52:59.438Z,5.65
2023-02-19T23:55:26.522Z,5.66
2023-02-19T23:57:53.564Z,5.67
